sensor_id;sensor_type;location;lat;lon;timestamp;P1;durP1;ratioP1;P2;durP2;ratioP2
6902;SDS011;20232;49.408;8.702;2023-05-07T04:07:31;3.27;;;2.90;;
6902;SDS011;20232;49.408;8.702;2023-05-07T04:09:57;2.80;;;2.60;;
6902;SDS011;20232;49.408;8.702;2023-05-07T04:12:22;2.60;;;2.40;;
6902;SDS011;20232;49.408;8.702;2023-05-07T04:14:48;2.80;;;2.40;;
6902;SDS011;20232;49.408;8.702;2023-05-07T04:17:13;3.03;;;2.60;;
6902;SDS011;20232;49.408;8.702;2023-05-07T04:19:39;3.03;;;2.70;;
6902;SDS011;20232;49.408;8.702;2023-05-07T04:22:10;4.67;;;2.60;;
6902;SDS011;20232;49.408;8.702;2023-05-07T04:24:35;3.17;;;2.50;;
6902;SDS011;20232;49.408;8.702;2023-05-07T04:27:01;3.00;;;2.60;;
6902;SDS011;20232;49.408;8.702;2023-05-07T04:29:26;2.83;;;2.50;;
6902;SDS011;20232;49.408;8.702;2023-05-07T04:31:53;2.63;;;2.40;;
6902;SDS011;20232;49.408;8.702;2023-05-07T04:34:20;3.53;;;2.50;;
6902;SDS011;20232;49.408;8.702;2023-05-07T04:36:46;7.30;;;2.50;;
6902;SDS011;20232;49.408;8.702;2023-05-07T04:39:12;2.80;;;2.60;;
6902;SDS011;20232;49.408;8.702;2023-05-07T04:41:38;4.63;;;2.87;;
6902;SDS011;20232;49.408;8.702;2023-05-07T04:44:04;2.27;;;2.07;;
6902;SDS011;20232;49.408;8.702;2023-05-07T04:46:30;2.40;;;2.23;;
6902;SDS011;20232;49.408;8.702;2023-05-07T04:48:55;3.77;;;2.37;;
6902;SDS011;20232;49.408;8.702;2023-05-07T04:51:21;3.57;;;2.33;;
6902;SDS011;20232;49.408;8.702;2023-05-07T04:53:47;4.60;;;2.50;;
6902;SDS011;20232;49.408;8.702;2023-05-07T04:56:13;2.20;;;1.83;;
6902;SDS011;20232;49.408;8.702;2023-05-07T04:58:39;3.20;;;2.40;;
6902;SDS011;20232;49.408;8.702;2023-05-07T05:01:04;2.80;;;2.37;;
6902;SDS011;20232;49.408;8.702;2023-05-07T05:03:31;2.93;;;2.40;;
6902;SDS011;20232;49.408;8.702;2023-05-07T05:05:56;2.40;;;2.20;;
6902;SDS011;20232;49.408;8.702;2023-05-07T05:08:24;3.87;;;2.30;;
6902;SDS011;20232;49.408;8.702;2023-05-07T05:10:50;2.40;;;2.20;;
6902;SDS011;20232;49.408;8.702;2023-05-07T05:13:15;3.13;;;2.30;;
6902;SDS011;20232;49.408;8.702;2023-05-07T05:15:41;2.60;;;2.40;;
6902;SDS011;20232;49.408;8.702;2023-05-07T05:18:06;2.40;;;2.20;;
6902;SDS011;20232;49.408;8.702;2023-05-07T05:20:32;2.50;;;2.20;;
6902;SDS011;20232;49.408;8.702;2023-05-07T05:22:58;2.23;;;1.97;;
6902;SDS011;20232;49.408;8.702;2023-05-07T05:25:23;3.27;;;1.90;;
6902;SDS011;20232;49.408;8.702;2023-05-07T05:27:49;2.70;;;2.10;;
6902;SDS011;20232;49.408;8.702;2023-05-07T05:30:15;2.40;;;2.13;;
6902;SDS011;20232;49.408;8.702;2023-05-07T05:32:40;2.50;;;2.30;;
6902;SDS011;20232;49.408;8.702;2023-05-07T05:35:06;2.50;;;2.20;;
6902;SDS011;20232;49.408;8.702;2023-05-07T05:37:32;3.87;;;2.23;;
6902;SDS011;20232;49.408;8.702;2023-05-07T05:39:57;6.83;;;2.30;;
6902;SDS011;20232;49.408;8.702;2023-05-07T05:42:23;2.23;;;2.03;;
6902;SDS011;20232;49.408;8.702;2023-05-07T05:44:48;2.20;;;2.00;;
6902;SDS011;20232;49.408;8.702;2023-05-07T05:47:14;2.30;;;1.93;;
6902;SDS011;20232;49.408;8.702;2023-05-07T05:49:40;2.57;;;2.30;;
6902;SDS011;20232;49.408;8.702;2023-05-07T05:52:05;2.30;;;2.00;;
6902;SDS011;20232;49.408;8.702;2023-05-07T05:54:31;2.10;;;2.00;;
6902;SDS011;20232;49.408;8.702;2023-05-07T05:56:56;2.27;;;2.00;;
6902;SDS011;20232;49.408;8.702;2023-05-07T05:59:22;2.33;;;2.03;;
6902;SDS011;20232;49.408;8.702;2023-05-07T06:01:48;2.47;;;2.13;;
6902;SDS011;20232;49.408;8.702;2023-05-07T06:04:14;2.20;;;2.00;;
6902;SDS011;20232;49.408;8.702;2023-05-07T06:06:39;3.80;;;2.17;;
6902;SDS011;20232;49.408;8.702;2023-05-07T06:09:05;2.30;;;2.10;;
6902;SDS011;20232;49.408;8.702;2023-05-07T06:11:31;2.83;;;1.83;;
6902;SDS011;20232;49.408;8.702;2023-05-07T06:13:57;2.63;;;2.00;;
6902;SDS011;20232;49.408;8.702;2023-05-07T06:16:24;2.40;;;2.17;;
6902;SDS011;20232;49.408;8.702;2023-05-07T06:18:50;2.00;;;1.90;;
6902;SDS011;20232;49.408;8.702;2023-05-07T06:21:15;4.07;;;1.97;;
6902;SDS011;20232;49.408;8.702;2023-05-07T06:23:41;2.83;;;2.10;;
6902;SDS011;20232;49.408;8.702;2023-05-07T06:26:07;1.70;;;1.60;;
6902;SDS011;20232;49.408;8.702;2023-05-07T06:28:32;1.87;;;1.77;;
6902;SDS011;20232;49.408;8.702;2023-05-07T06:31:14;2.50;;;2.07;;
6902;SDS011;20232;49.408;8.702;2023-05-07T06:33:40;2.23;;;2.00;;
6902;SDS011;20232;49.408;8.702;2023-05-07T06:36:08;2.27;;;2.00;;
6902;SDS011;20232;49.408;8.702;2023-05-07T06:38:34;2.50;;;1.77;;
6902;SDS011;20232;49.408;8.702;2023-05-07T06:40:59;2.00;;;1.67;;
6902;SDS011;20232;49.408;8.702;2023-05-07T06:43:25;2.43;;;1.67;;
6902;SDS011;20232;49.408;8.702;2023-05-07T06:45:50;3.00;;;1.83;;
6902;SDS011;20232;49.408;8.702;2023-05-07T06:48:16;1.70;;;1.60;;
6902;SDS011;20232;49.408;8.702;2023-05-07T06:50:41;2.43;;;1.90;;
6902;SDS011;20232;49.408;8.702;2023-05-07T06:53:07;1.97;;;1.80;;
6902;SDS011;20232;49.408;8.702;2023-05-07T06:55:33;1.90;;;1.80;;
6902;SDS011;20232;49.408;8.702;2023-05-07T06:57:58;1.80;;;1.70;;
6902;SDS011;20232;49.408;8.702;2023-05-07T07:00:26;2.60;;;1.83;;
6902;SDS011;20232;49.408;8.702;2023-05-07T07:02:52;1.60;;;1.50;;
6902;SDS011;20232;49.408;8.702;2023-05-07T07:05:18;1.77;;;1.67;;
6902;SDS011;20232;49.408;8.702;2023-05-07T07:07:44;2.00;;;1.50;;
6902;SDS011;20232;49.408;8.702;2023-05-07T07:10:09;2.43;;;1.67;;
6902;SDS011;20232;49.408;8.702;2023-05-07T07:12:35;2.10;;;1.90;;
6902;SDS011;20232;49.408;8.702;2023-05-07T07:15:00;2.13;;;1.90;;
6902;SDS011;20232;49.408;8.702;2023-05-07T07:17:27;2.90;;;2.13;;
6902;SDS011;20232;49.408;8.702;2023-05-07T07:19:53;3.40;;;1.63;;
6902;SDS011;20232;49.408;8.702;2023-05-07T07:22:19;4.33;;;1.97;;
6902;SDS011;20232;49.408;8.702;2023-05-07T07:24:44;2.77;;;1.60;;
6902;SDS011;20232;49.408;8.702;2023-05-07T07:27:10;2.60;;;1.70;;
6902;SDS011;20232;49.408;8.702;2023-05-07T07:29:35;1.57;;;1.47;;
6902;SDS011;20232;49.408;8.702;2023-05-07T07:32:01;3.20;;;1.50;;
6902;SDS011;20232;49.408;8.702;2023-05-07T07:34:26;1.77;;;1.43;;
6902;SDS011;20232;49.408;8.702;2023-05-07T07:36:52;1.77;;;1.40;;
6902;SDS011;20232;49.408;8.702;2023-05-07T07:39:17;1.50;;;1.40;;
6902;SDS011;20232;49.408;8.702;2023-05-07T07:41:43;2.97;;;1.60;;
6902;SDS011;20232;49.408;8.702;2023-05-07T07:44:08;1.97;;;1.40;;
6902;SDS011;20232;49.408;8.702;2023-05-07T07:46:37;2.80;;;1.80;;
6902;SDS011;20232;49.408;8.702;2023-05-07T07:49:03;1.90;;;1.53;;
6902;SDS011;20232;49.408;8.702;2023-05-07T07:51:28;2.90;;;1.70;;
6902;SDS011;20232;49.408;8.702;2023-05-07T07:53:55;1.50;;;1.40;;
6902;SDS011;20232;49.408;8.702;2023-05-07T07:56:22;1.70;;;1.60;;
6902;SDS011;20232;49.408;8.702;2023-05-07T07:58:48;2.87;;;1.50;;
6902;SDS011;20232;49.408;8.702;2023-05-07T08:01:14;1.97;;;1.60;;
6902;SDS011;20232;49.408;8.702;2023-05-07T08:03:39;1.70;;;1.60;;
6902;SDS011;20232;49.408;8.702;2023-05-07T08:06:05;2.23;;;1.40;;
6902;SDS011;20232;49.408;8.702;2023-05-07T08:08:31;1.83;;;1.70;;
6902;SDS011;20232;49.408;8.702;2023-05-07T08:10:56;1.40;;;1.30;;
6902;SDS011;20232;49.408;8.702;2023-05-07T08:13:22;1.60;;;1.50;;
6902;SDS011;20232;49.408;8.702;2023-05-07T08:15:47;1.70;;;1.60;;
6902;SDS011;20232;49.408;8.702;2023-05-07T08:18:13;2.07;;;1.70;;
6902;SDS011;20232;49.408;8.702;2023-05-07T08:20:39;2.17;;;1.90;;
6902;SDS011;20232;49.408;8.702;2023-05-07T08:23:04;2.20;;;1.70;;
6902;SDS011;20232;49.408;8.702;2023-05-07T08:25:32;3.87;;;1.80;;
6902;SDS011;20232;49.408;8.702;2023-05-07T08:27:59;1.67;;;1.53;;
6902;SDS011;20232;49.408;8.702;2023-05-07T08:30:25;2.30;;;1.33;;
6902;SDS011;20232;49.408;8.702;2023-05-07T08:32:51;2.63;;;1.67;;
6902;SDS011;20232;49.408;8.702;2023-05-07T08:35:16;3.27;;;2.00;;
6902;SDS011;20232;49.408;8.702;2023-05-07T08:37:42;2.30;;;2.10;;
6902;SDS011;20232;49.408;8.702;2023-05-07T08:40:07;2.57;;;2.00;;
6902;SDS011;20232;49.408;8.702;2023-05-07T08:42:35;2.47;;;2.03;;
6902;SDS011;20232;49.408;8.702;2023-05-07T08:45:04;3.50;;;2.13;;
6902;SDS011;20232;49.408;8.702;2023-05-07T08:47:35;3.63;;;2.13;;
6902;SDS011;20232;49.408;8.702;2023-05-07T08:50:15;2.93;;;2.00;;
6902;SDS011;20232;49.408;8.702;2023-05-07T08:52:41;3.70;;;2.23;;
6902;SDS011;20232;49.408;8.702;2023-05-07T08:55:07;2.30;;;2.10;;
6902;SDS011;20232;49.408;8.702;2023-05-07T08:57:33;3.30;;;2.20;;
6902;SDS011;20232;49.408;8.702;2023-05-07T08:59:59;2.70;;;2.30;;
6902;SDS011;20232;49.408;8.702;2023-05-07T09:02:25;2.53;;;2.23;;
6902;SDS011;20232;49.408;8.702;2023-05-07T09:04:51;4.47;;;2.30;;
6902;SDS011;20232;49.408;8.702;2023-05-07T09:07:17;5.83;;;2.60;;
6902;SDS011;20232;49.408;8.702;2023-05-07T09:09:44;2.60;;;2.40;;
6902;SDS011;20232;49.408;8.702;2023-05-07T09:12:11;2.77;;;2.40;;
6902;SDS011;20232;49.408;8.702;2023-05-07T09:14:36;2.80;;;2.17;;
6902;SDS011;20232;49.408;8.702;2023-05-07T09:17:02;3.37;;;2.13;;
6902;SDS011;20232;49.408;8.702;2023-05-07T09:19:28;1.97;;;1.80;;
6902;SDS011;20232;49.408;8.702;2023-05-07T09:22:02;2.70;;;2.10;;
6902;SDS011;20232;49.408;8.702;2023-05-07T09:24:28;2.33;;;1.87;;
6902;SDS011;20232;49.408;8.702;2023-05-07T09:26:58;2.93;;;1.63;;
6902;SDS011;20232;49.408;8.702;2023-05-07T09:29:25;2.10;;;1.50;;
6902;SDS011;20232;49.408;8.702;2023-05-07T09:31:51;2.73;;;1.70;;
6902;SDS011;20232;49.408;8.702;2023-05-07T09:34:16;2.00;;;1.60;;
6902;SDS011;20232;49.408;8.702;2023-05-07T09:36:42;2.00;;;1.50;;
6902;SDS011;20232;49.408;8.702;2023-05-07T09:39:07;1.77;;;1.50;;
6902;SDS011;20232;49.408;8.702;2023-05-07T09:41:33;3.63;;;1.60;;
6902;SDS011;20232;49.408;8.702;2023-05-07T09:44:09;3.50;;;1.90;;
6902;SDS011;20232;49.408;8.702;2023-05-07T09:46:34;2.40;;;1.70;;
6902;SDS011;20232;49.408;8.702;2023-05-07T09:49:03;1.90;;;1.50;;
6902;SDS011;20232;49.408;8.702;2023-05-07T09:51:38;1.70;;;1.60;;
6902;SDS011;20232;49.408;8.702;2023-05-07T09:54:08;2.53;;;1.40;;
6902;SDS011;20232;49.408;8.702;2023-05-07T09:56:35;2.43;;;1.50;;
6902;SDS011;20232;49.408;8.702;2023-05-07T09:59:02;1.77;;;1.57;;
6902;SDS011;20232;49.408;8.702;2023-05-07T10:01:29;1.70;;;1.60;;
6902;SDS011;20232;49.408;8.702;2023-05-07T10:03:56;5.93;;;2.23;;
6902;SDS011;20232;49.408;8.702;2023-05-07T10:06:23;1.30;;;1.20;;
6902;SDS011;20232;49.408;8.702;2023-05-07T10:08:51;2.03;;;1.60;;
6902;SDS011;20232;49.408;8.702;2023-05-07T10:11:17;1.47;;;1.37;;
6902;SDS011;20232;49.408;8.702;2023-05-07T10:13:44;1.53;;;1.40;;
6902;SDS011;20232;49.408;8.702;2023-05-07T10:16:12;1.70;;;1.30;;
6902;SDS011;20232;49.408;8.702;2023-05-07T10:18:40;1.93;;;1.60;;
6902;SDS011;20232;49.408;8.702;2023-05-07T10:21:19;1.97;;;1.40;;
6902;SDS011;20232;49.408;8.702;2023-05-07T10:23:50;1.60;;;1.50;;
6902;SDS011;20232;49.408;8.702;2023-05-07T10:26:18;1.60;;;1.20;;
6902;SDS011;20232;49.408;8.702;2023-05-07T10:28:49;2.73;;;1.60;;
6902;SDS011;20232;49.408;8.702;2023-05-07T10:34:09;2.50;;;1.50;;
6902;SDS011;20232;49.408;8.702;2023-05-07T10:36:38;3.07;;;1.73;;
6902;SDS011;20232;49.408;8.702;2023-05-07T10:39:04;4.00;;;2.17;;
6902;SDS011;20232;49.408;8.702;2023-05-07T10:41:31;2.93;;;2.20;;
6902;SDS011;20232;49.408;8.702;2023-05-07T10:43:56;5.07;;;2.20;;
6902;SDS011;20232;49.408;8.702;2023-05-07T10:46:26;5.20;;;2.20;;
6902;SDS011;20232;49.408;8.702;2023-05-07T10:51:30;1.87;;;1.30;;
6902;SDS011;20232;49.408;8.702;2023-05-07T10:56:35;2.23;;;1.40;;
6902;SDS011;20232;49.408;8.702;2023-05-07T11:04:22;1.63;;;1.30;;
6902;SDS011;20232;49.408;8.702;2023-05-07T11:15:09;4.43;;;1.83;;
6902;SDS011;20232;49.408;8.702;2023-05-07T11:17:55;1.60;;;1.50;;
6902;SDS011;20232;49.408;8.702;2023-05-07T11:26:04;2.37;;;1.20;;
6902;SDS011;20232;49.408;8.702;2023-05-07T11:28:36;2.77;;;1.40;;
6902;SDS011;20232;49.408;8.702;2023-05-07T11:31:03;1.53;;;1.43;;
6902;SDS011;20232;49.408;8.702;2023-05-07T11:33:29;3.20;;;1.40;;
6902;SDS011;20232;49.408;8.702;2023-05-07T11:35:55;1.87;;;1.20;;
6902;SDS011;20232;49.408;8.702;2023-05-07T11:38:21;2.03;;;1.30;;
6902;SDS011;20232;49.408;8.702;2023-05-07T11:40:54;1.10;;;1.10;;
6902;SDS011;20232;49.408;8.702;2023-05-07T11:43:21;2.43;;;1.33;;
6902;SDS011;20232;49.408;8.702;2023-05-07T11:45:47;1.50;;;1.30;;
6902;SDS011;20232;49.408;8.702;2023-05-07T11:48:14;3.27;;;1.50;;
6902;SDS011;20232;49.408;8.702;2023-05-07T11:51:23;2.87;;;1.77;;
6902;SDS011;20232;49.408;8.702;2023-05-07T11:53:40;2.80;;;1.50;;
6902;SDS011;20232;49.408;8.702;2023-05-07T11:56:07;1.73;;;1.50;;
6902;SDS011;20232;49.408;8.702;2023-05-07T11:58:33;1.67;;;1.40;;
6902;SDS011;20232;49.408;8.702;2023-05-07T12:00:58;2.33;;;1.30;;
6902;SDS011;20232;49.408;8.702;2023-05-07T12:03:24;3.63;;;1.77;;
6902;SDS011;20232;49.408;8.702;2023-05-07T12:05:50;2.03;;;1.80;;
6902;SDS011;20232;49.408;8.702;2023-05-07T12:08:16;4.67;;;1.97;;
6902;SDS011;20232;49.408;8.702;2023-05-07T12:10:42;5.47;;;2.87;;
6902;SDS011;20232;49.408;8.702;2023-05-07T12:13:15;6.47;;;2.87;;
6902;SDS011;20232;49.408;8.702;2023-05-07T12:15:45;4.07;;;3.00;;
6902;SDS011;20232;49.408;8.702;2023-05-07T12:18:11;3.17;;;1.73;;
6902;SDS011;20232;49.408;8.702;2023-05-07T12:20:37;2.17;;;1.47;;
6902;SDS011;20232;49.408;8.702;2023-05-07T12:23:04;2.83;;;1.73;;
6902;SDS011;20232;49.408;8.702;2023-05-07T12:25:39;2.83;;;2.10;;
6902;SDS011;20232;49.408;8.702;2023-05-07T12:28:08;5.67;;;2.83;;
6902;SDS011;20232;49.408;8.702;2023-05-07T12:30:38;2.40;;;1.40;;
6902;SDS011;20232;49.408;8.702;2023-05-07T12:33:04;2.60;;;1.50;;
6902;SDS011;20232;49.408;8.702;2023-05-07T12:35:30;4.73;;;1.97;;
6902;SDS011;20232;49.408;8.702;2023-05-07T12:37:58;1.73;;;1.63;;
6902;SDS011;20232;49.408;8.702;2023-05-07T12:40:33;2.20;;;1.80;;
6902;SDS011;20232;49.408;8.702;2023-05-07T12:43:07;1.97;;;1.80;;
6902;SDS011;20232;49.408;8.702;2023-05-07T12:45:41;2.73;;;1.63;;
6902;SDS011;20232;49.408;8.702;2023-05-07T12:48:07;2.17;;;1.60;;
6902;SDS011;20232;49.408;8.702;2023-05-07T12:50:35;1.90;;;1.40;;
6902;SDS011;20232;49.408;8.702;2023-05-07T12:53:00;2.50;;;1.80;;
6902;SDS011;20232;49.408;8.702;2023-05-07T12:55:31;2.23;;;1.60;;
6902;SDS011;20232;49.408;8.702;2023-05-07T12:57:56;1.90;;;1.80;;
6902;SDS011;20232;49.408;8.702;2023-05-07T13:00:32;2.07;;;1.70;;
6902;SDS011;20232;49.408;8.702;2023-05-07T13:02:58;2.77;;;1.40;;
6902;SDS011;20232;49.408;8.702;2023-05-07T13:05:24;2.60;;;1.93;;
6902;SDS011;20232;49.408;8.702;2023-05-07T13:07:53;2.07;;;1.87;;
6902;SDS011;20232;49.408;8.702;2023-05-07T13:10:19;2.23;;;1.60;;
6902;SDS011;20232;49.408;8.702;2023-05-07T13:12:45;2.13;;;1.87;;
6902;SDS011;20232;49.408;8.702;2023-05-07T13:15:10;2.47;;;1.50;;
6902;SDS011;20232;49.408;8.702;2023-05-07T13:17:36;3.57;;;1.47;;
6902;SDS011;20232;49.408;8.702;2023-05-07T13:20:01;3.13;;;1.77;;
6902;SDS011;20232;49.408;8.702;2023-05-07T13:22:27;2.10;;;1.70;;
6902;SDS011;20232;49.408;8.702;2023-05-07T13:24:53;1.83;;;1.73;;
6902;SDS011;20232;49.408;8.702;2023-05-07T13:27:18;3.17;;;1.50;;
6902;SDS011;20232;49.408;8.702;2023-05-07T13:29:44;2.80;;;1.60;;
6902;SDS011;20232;49.408;8.702;2023-05-07T13:32:10;2.83;;;1.80;;
6902;SDS011;20232;49.408;8.702;2023-05-07T13:34:35;1.87;;;1.57;;
6902;SDS011;20232;49.408;8.702;2023-05-07T13:37:02;1.60;;;1.50;;
6902;SDS011;20232;49.408;8.702;2023-05-07T13:39:27;2.00;;;1.80;;
6902;SDS011;20232;49.408;8.702;2023-05-07T13:41:53;3.77;;;2.30;;
6902;SDS011;20232;49.408;8.702;2023-05-07T13:44:18;1.90;;;1.80;;
6902;SDS011;20232;49.408;8.702;2023-05-07T13:46:44;2.93;;;1.70;;
6902;SDS011;20232;49.408;8.702;2023-05-07T13:49:10;2.10;;;1.90;;
6902;SDS011;20232;49.408;8.702;2023-05-07T13:51:36;2.43;;;1.63;;
6902;SDS011;20232;49.408;8.702;2023-05-07T13:54:01;1.93;;;1.80;;
6902;SDS011;20232;49.408;8.702;2023-05-07T13:56:27;3.13;;;1.80;;
6902;SDS011;20232;49.408;8.702;2023-05-07T13:58:55;2.13;;;1.93;;
6902;SDS011;20232;49.408;8.702;2023-05-07T14:01:21;3.90;;;2.10;;
6902;SDS011;20232;49.408;8.702;2023-05-07T14:03:46;4.27;;;2.20;;
6902;SDS011;20232;49.408;8.702;2023-05-07T14:06:12;9.10;;;3.07;;
6902;SDS011;20232;49.408;8.702;2023-05-07T14:08:38;4.13;;;2.40;;
6902;SDS011;20232;49.408;8.702;2023-05-07T14:11:04;7.40;;;3.00;;
6902;SDS011;20232;49.408;8.702;2023-05-07T14:13:29;7.53;;;3.40;;
6902;SDS011;20232;49.408;8.702;2023-05-07T14:15:55;9.47;;;4.00;;
6902;SDS011;20232;49.408;8.702;2023-05-07T14:19:06;6.27;;;4.40;;
6902;SDS011;20232;49.408;8.702;2023-05-07T14:21:32;7.67;;;4.60;;
6902;SDS011;20232;49.408;8.702;2023-05-07T14:23:58;13.67;;;5.07;;
6902;SDS011;20232;49.408;8.702;2023-05-07T14:26:24;8.47;;;4.83;;
6902;SDS011;20232;49.408;8.702;2023-05-07T14:28:51;7.13;;;4.90;;
6902;SDS011;20232;49.408;8.702;2023-05-07T14:31:19;4.67;;;3.40;;
6902;SDS011;20232;49.408;8.702;2023-05-07T14:33:46;7.60;;;3.60;;
6902;SDS011;20232;49.408;8.702;2023-05-07T14:36:11;4.03;;;2.53;;
6902;SDS011;20232;49.408;8.702;2023-05-07T14:38:37;3.27;;;2.87;;
6902;SDS011;20232;49.408;8.702;2023-05-07T14:41:03;5.50;;;2.97;;
6902;SDS011;20232;49.408;8.702;2023-05-07T14:43:28;3.27;;;2.30;;
6902;SDS011;20232;49.408;8.702;2023-05-07T14:45:54;4.67;;;2.40;;
6902;SDS011;20232;49.408;8.702;2023-05-07T14:48:19;7.40;;;3.60;;
6902;SDS011;20232;49.408;8.702;2023-05-07T14:50:48;12.23;;;4.40;;
6902;SDS011;20232;49.408;8.702;2023-05-07T14:53:14;18.77;;;5.30;;
6902;SDS011;20232;49.408;8.702;2023-05-07T14:55:40;15.33;;;5.93;;
6902;SDS011;20232;49.408;8.702;2023-05-07T14:58:05;17.57;;;6.33;;
6902;SDS011;20232;49.408;8.702;2023-05-07T15:00:31;55.90;;;30.77;;
6902;SDS011;20232;49.408;8.702;2023-05-07T15:03:01;16.37;;;6.07;;
6902;SDS011;20232;49.408;8.702;2023-05-07T15:05:33;12.37;;;4.77;;
6902;SDS011;20232;49.408;8.702;2023-05-07T15:08:00;8.20;;;4.87;;
6902;SDS011;20232;49.408;8.702;2023-05-07T15:10:25;14.83;;;6.30;;
6902;SDS011;20232;49.408;8.702;2023-05-07T15:12:51;8.67;;;6.17;;
6902;SDS011;20232;49.408;8.702;2023-05-07T15:15:16;11.80;;;7.10;;
6902;SDS011;20232;49.408;8.702;2023-05-07T15:17:42;10.80;;;5.90;;
6902;SDS011;20232;49.408;8.702;2023-05-07T15:20:08;7.50;;;4.70;;
6902;SDS011;20232;49.408;8.702;2023-05-07T15:22:34;8.40;;;4.63;;
6902;SDS011;20232;49.408;8.702;2023-05-07T15:25:02;7.07;;;4.13;;
6902;SDS011;20232;49.408;8.702;2023-05-07T15:27:29;7.07;;;4.60;;
6902;SDS011;20232;49.408;8.702;2023-05-07T15:29:55;4.40;;;3.60;;
6902;SDS011;20232;49.408;8.702;2023-05-07T15:32:21;5.50;;;4.27;;
6902;SDS011;20232;49.408;8.702;2023-05-07T15:34:46;5.87;;;4.57;;
6902;SDS011;20232;49.408;8.702;2023-05-07T15:37:12;7.23;;;4.90;;
6902;SDS011;20232;49.408;8.702;2023-05-07T15:39:38;6.70;;;4.73;;
6902;SDS011;20232;49.408;8.702;2023-05-07T15:42:04;6.87;;;4.83;;
6902;SDS011;20232;49.408;8.702;2023-05-07T15:44:29;9.63;;;5.70;;
6902;SDS011;20232;49.408;8.702;2023-05-07T15:46:57;5.90;;;5.30;;
6902;SDS011;20232;49.408;8.702;2023-05-07T15:49:24;7.47;;;4.30;;
6902;SDS011;20232;49.408;8.702;2023-05-07T15:51:49;5.87;;;4.37;;
6902;SDS011;20232;49.408;8.702;2023-05-07T15:54:16;7.40;;;4.47;;
6902;SDS011;20232;49.408;8.702;2023-05-07T15:56:44;7.97;;;4.57;;
6902;SDS011;20232;49.408;8.702;2023-05-07T15:59:10;9.87;;;5.23;;
6902;SDS011;20232;49.408;8.702;2023-05-07T16:01:36;9.63;;;4.97;;
6902;SDS011;20232;49.408;8.702;2023-05-07T16:04:02;7.60;;;4.43;;
6902;SDS011;20232;49.408;8.702;2023-05-07T16:06:28;7.90;;;4.00;;
6902;SDS011;20232;49.408;8.702;2023-05-07T16:08:55;7.60;;;3.80;;
6902;SDS011;20232;49.408;8.702;2023-05-07T16:11:20;5.30;;;3.70;;
6902;SDS011;20232;49.408;8.702;2023-05-07T16:13:46;5.63;;;3.60;;
6902;SDS011;20232;49.408;8.702;2023-05-07T16:16:12;7.90;;;3.00;;
6902;SDS011;20232;49.408;8.702;2023-05-07T16:18:37;7.80;;;3.33;;
6902;SDS011;20232;49.408;8.702;2023-05-07T16:21:03;8.33;;;3.40;;
6902;SDS011;20232;49.408;8.702;2023-05-07T16:23:30;7.17;;;3.80;;
6902;SDS011;20232;49.408;8.702;2023-05-07T16:25:55;6.90;;;4.17;;
6902;SDS011;20232;49.408;8.702;2023-05-07T16:28:21;7.93;;;4.60;;
6902;SDS011;20232;49.408;8.702;2023-05-07T16:30:47;8.03;;;4.40;;
6902;SDS011;20232;49.408;8.702;2023-05-07T16:33:13;4.77;;;4.27;;
6902;SDS011;20232;49.408;8.702;2023-05-07T16:35:38;8.77;;;4.90;;
6902;SDS011;20232;49.408;8.702;2023-05-07T16:38:04;5.77;;;4.17;;
6902;SDS011;20232;49.408;8.702;2023-05-07T16:40:36;5.60;;;4.43;;
6902;SDS011;20232;49.408;8.702;2023-05-07T16:43:05;6.77;;;4.40;;
6902;SDS011;20232;49.408;8.702;2023-05-07T16:45:31;7.20;;;4.97;;
6902;SDS011;20232;49.408;8.702;2023-05-07T16:47:57;8.37;;;5.57;;
6902;SDS011;20232;49.408;8.702;2023-05-07T16:50:22;8.23;;;5.07;;
6902;SDS011;20232;49.408;8.702;2023-05-07T16:52:48;5.77;;;4.60;;
6902;SDS011;20232;49.408;8.702;2023-05-07T16:55:14;7.67;;;4.80;;
6902;SDS011;20232;49.408;8.702;2023-05-07T16:57:39;5.50;;;4.30;;
6902;SDS011;20232;49.408;8.702;2023-05-07T17:00:05;5.83;;;4.00;;
6902;SDS011;20232;49.408;8.702;2023-05-07T17:02:31;6.70;;;4.20;;
6902;SDS011;20232;49.408;8.702;2023-05-07T17:04:59;6.70;;;4.27;;
6902;SDS011;20232;49.408;8.702;2023-05-07T17:07:25;4.97;;;3.80;;
6902;SDS011;20232;49.408;8.702;2023-05-07T17:09:51;5.20;;;3.60;;
6902;SDS011;20232;49.408;8.702;2023-05-07T17:12:17;6.07;;;4.20;;
6902;SDS011;20232;49.408;8.702;2023-05-07T17:14:42;5.03;;;4.00;;
6902;SDS011;20232;49.408;8.702;2023-05-07T17:17:08;6.33;;;3.90;;
6902;SDS011;20232;49.408;8.702;2023-05-07T17:19:35;3.50;;;3.20;;
6902;SDS011;20232;49.408;8.702;2023-05-07T17:22:02;6.70;;;3.10;;
6902;SDS011;20232;49.408;8.702;2023-05-07T17:24:28;3.20;;;2.90;;
6902;SDS011;20232;49.408;8.702;2023-05-07T17:26:54;3.37;;;2.43;;
6902;SDS011;20232;49.408;8.702;2023-05-07T17:29:19;4.80;;;2.60;;
6902;SDS011;20232;49.408;8.702;2023-05-07T17:31:45;3.83;;;2.53;;
6902;SDS011;20232;49.408;8.702;2023-05-07T17:34:11;2.73;;;2.40;;
6902;SDS011;20232;49.408;8.702;2023-05-07T17:36:36;4.00;;;2.63;;
6902;SDS011;20232;49.408;8.702;2023-05-07T17:39:02;5.63;;;3.30;;
6902;SDS011;20232;49.408;8.702;2023-05-07T17:41:28;4.07;;;3.00;;
6902;SDS011;20232;49.408;8.702;2023-05-07T17:43:54;5.87;;;3.90;;
6902;SDS011;20232;49.408;8.702;2023-05-07T17:46:19;8.83;;;4.00;;
6902;SDS011;20232;49.408;8.702;2023-05-07T17:48:45;5.57;;;4.20;;
6902;SDS011;20232;49.408;8.702;2023-05-07T17:51:10;6.47;;;4.53;;
6902;SDS011;20232;49.408;8.702;2023-05-07T17:53:36;4.60;;;4.20;;
6902;SDS011;20232;49.408;8.702;2023-05-07T17:56:02;3.37;;;3.07;;
6902;SDS011;20232;49.408;8.702;2023-05-07T17:58:27;4.70;;;3.13;;
6902;SDS011;20232;49.408;8.702;2023-05-07T18:00:53;3.57;;;3.20;;
6902;SDS011;20232;49.408;8.702;2023-05-07T18:03:21;4.60;;;3.40;;
6902;SDS011;20232;49.408;8.702;2023-05-07T18:05:48;4.37;;;3.47;;
6902;SDS011;20232;49.408;8.702;2023-05-07T18:08:14;4.40;;;3.20;;
6902;SDS011;20232;49.408;8.702;2023-05-07T18:10:39;4.73;;;3.40;;
6902;SDS011;20232;49.408;8.702;2023-05-07T18:13:05;3.30;;;3.00;;
6902;SDS011;20232;49.408;8.702;2023-05-07T18:15:31;3.17;;;2.53;;
6902;SDS011;20232;49.408;8.702;2023-05-07T18:17:56;2.60;;;2.10;;
6902;SDS011;20232;49.408;8.702;2023-05-07T18:20:22;3.60;;;2.30;;
6902;SDS011;20232;49.408;8.702;2023-05-07T18:22:47;3.53;;;2.00;;
6902;SDS011;20232;49.408;8.702;2023-05-07T18:25:13;2.07;;;1.90;;
6902;SDS011;20232;49.408;8.702;2023-05-07T18:27:38;3.67;;;1.80;;
6902;SDS011;20232;49.408;8.702;2023-05-07T18:30:04;2.07;;;1.90;;
6902;SDS011;20232;49.408;8.702;2023-05-07T18:32:30;3.07;;;2.63;;
6902;SDS011;20232;49.408;8.702;2023-05-07T18:34:56;3.37;;;2.10;;
6902;SDS011;20232;49.408;8.702;2023-05-07T18:37:21;2.77;;;2.20;;
6902;SDS011;20232;49.408;8.702;2023-05-07T18:39:47;3.20;;;2.20;;
6902;SDS011;20232;49.408;8.702;2023-05-07T18:42:13;4.87;;;3.80;;
6902;SDS011;20232;49.408;8.702;2023-05-07T18:44:38;2.43;;;2.17;;
6902;SDS011;20232;49.408;8.702;2023-05-07T18:47:04;5.07;;;2.40;;
6902;SDS011;20232;49.408;8.702;2023-05-07T18:49:30;2.77;;;2.40;;
6902;SDS011;20232;49.408;8.702;2023-05-07T18:51:59;5.20;;;2.80;;
6902;SDS011;20232;49.408;8.702;2023-05-07T18:54:25;5.17;;;2.67;;
6902;SDS011;20232;49.408;8.702;2023-05-07T18:56:51;2.40;;;2.20;;
6902;SDS011;20232;49.408;8.702;2023-05-07T18:59:17;2.60;;;2.40;;
6902;SDS011;20232;49.408;8.702;2023-05-07T19:01:42;2.93;;;2.40;;
6902;SDS011;20232;49.408;8.702;2023-05-07T19:04:08;3.23;;;2.87;;
6902;SDS011;20232;49.408;8.702;2023-05-07T19:06:34;4.10;;;2.83;;
6902;SDS011;20232;49.408;8.702;2023-05-07T19:09:00;3.93;;;2.80;;
6902;SDS011;20232;49.408;8.702;2023-05-07T19:11:25;3.57;;;2.97;;
6902;SDS011;20232;49.408;8.702;2023-05-07T19:13:51;3.67;;;3.23;;
6902;SDS011;20232;49.408;8.702;2023-05-07T19:16:17;6.33;;;3.77;;
6902;SDS011;20232;49.408;8.702;2023-05-07T19:18:42;5.83;;;3.60;;
6902;SDS011;20232;49.408;8.702;2023-05-07T19:21:08;3.80;;;3.10;;
6902;SDS011;20232;49.408;8.702;2023-05-07T19:23:34;4.33;;;2.93;;
6902;SDS011;20232;49.408;8.702;2023-05-07T19:26:06;3.70;;;3.40;;
6902;SDS011;20232;49.408;8.702;2023-05-07T19:28:33;3.90;;;3.60;;
6902;SDS011;20232;49.408;8.702;2023-05-07T19:30:58;3.80;;;3.50;;